Time;durP1;ratioP1;P1;durP2;ratioP2;P2;SDS_P1;SDS_P2;PMS_P1;PMS_P2;Temp;Humidity;BMP_temperature;BMP_pressure;BME280_temperature;BME280_humidity;BME280_pressure;Samples;Min_cycle;Max_cycle;Signal;HPM_P1;HPM_P2
2023/03/21 00:00:02;;;;;;;2.20;2.00;;;18.70;48.60;;;;;;4955358;28;20195;-72
2023/03/21 00:02:32;;;;;;;2.53;1.65;;;18.70;48.60;;;;;;4955286;29;20191;-72
2023/03/21 00:04:59;;;;;;;2.15;1.80;;;18.70;48.70;;;;;;4937823;29;20230;-71
2023/03/21 00:07:26;;;;;;;2.75;2.00;;;18.60;48.60;;;;;;4938116;29;20242;-72
2023/03/21 00:09:54;;;;;;;2.00;1.90;;;18.70;48.70;;;;;;4955329;28;20191;-71
2023/03/21 00:12:21;;;;;;;2.15;2.05;;;18.60;48.70;;;;;;4955461;29;20689;-71
2023/03/21 00:14:49;;;;;;;3.17;1.80;;;18.60;48.70;;;;;;4955239;28;20211;-71
2023/03/21 00:17:21;;;;;;;1.83;1.70;;;18.60;48.60;;;;;;4955217;28;20198;-71
2023/03/21 00:19:48;;;;;;;2.03;1.83;;;18.60;48.70;;;;;;4938329;29;20631;-71
2023/03/21 00:22:16;;;;;;;2.30;1.77;;;18.60;48.70;;;;;;4955390;28;20242;-71
2023/03/21 00:24:44;;;;;;;1.83;1.73;;;18.60;48.80;;;;;;4937803;29;20618;-71
2023/03/21 00:27:12;;;;;;;2.03;1.83;;;18.60;48.80;;;;;;4938171;29;20209;-71
2023/03/21 00:29:39;;;;;;;2.08;1.90;;;18.50;48.70;;;;;;4937938;29;20297;-72
2023/03/21 00:32:09;;;;;;;2.17;2.00;;;18.50;48.80;;;;;;4938033;29;20250;-71
2023/03/21 00:34:38;;;;;;;3.33;1.80;;;18.50;48.70;;;;;;4938249;29;20219;-71
2023/03/21 00:37:06;;;;;;;2.58;1.80;;;18.50;48.80;;;;;;4938151;29;20202;-72
2023/03/21 00:39:34;;;;;;;1.75;1.63;;;18.50;49.40;;;;;;4937986;29;20205;-71
2023/03/21 00:42:01;;;;;;;3.47;1.90;;;18.50;49.00;;;;;;4938587;29;20203;-73
2023/03/21 00:44:28;;;;;;;3.65;2.10;;;18.50;49.00;;;;;;4941515;29;20226;-71
2023/03/21 00:46:55;;;;;;;2.67;1.80;;;18.40;48.80;;;;;;4941587;29;20665;-71
2023/03/21 00:49:22;;;;;;;2.05;1.70;;;18.50;49.00;;;;;;4941824;29;20249;-72
2023/03/21 00:51:53;;;;;;;2.53;1.73;;;18.40;48.90;;;;;;4941755;29;20206;-71
2023/03/21 00:54:20;;;;;;;2.75;1.90;;;18.50;49.00;;;;;;4958675;28;20219;-72
2023/03/21 00:56:47;;;;;;;2.13;1.92;;;18.40;48.90;;;;;;4941589;29;20661;-71
2023/03/21 00:59:15;;;;;;;2.00;1.65;;;18.40;48.90;;;;;;4941893;29;20206;-71
2023/03/21 01:01:45;;;;;;;1.88;1.77;;;18.40;49.00;;;;;;4941680;29;20198;-71
2023/03/21 01:04:13;;;;;;;2.75;2.05;;;18.40;49.00;;;;;;4941434;28;20289;-71
2023/03/21 01:06:41;;;;;;;1.75;1.65;;;18.40;48.90;;;;;;4958602;28;20254;-71
2023/03/21 01:09:11;;;;;;;1.83;1.73;;;18.40;49.00;;;;;;4959378;29;20191;-71
2023/03/21 01:11:39;;;;;;;1.70;1.60;;;18.40;48.90;;;;;;4942259;29;20237;-71
2023/03/21 01:14:06;;;;;;;1.92;1.83;;;18.40;49.00;;;;;;4941320;28;20199;-71
2023/03/21 01:16:33;;;;;;;1.92;1.80;;;18.40;49.00;;;;;;4941360;29;20227;-71
2023/03/21 01:19:00;;;;;;;2.30;1.50;;;18.40;49.00;;;;;;4941087;29;20202;-73
2023/03/21 01:21:30;;;;;;;2.00;1.80;;;18.40;49.00;;;;;;4967319;23;20203;-81
2023/03/21 01:23:57;;;;;;;2.85;1.80;;;18.40;49.10;;;;;;4908371;29;20238;-82
2023/03/21 01:26:26;;;;;;;1.90;1.75;;;18.40;49.10;;;;;;4923276;29;20228;-81
2023/03/21 01:28:53;;;;;;;1.65;1.55;;;18.40;49.10;;;;;;4924238;29;20210;-81
2023/03/21 01:31:20;;;;;;;1.80;1.70;;;18.40;49.00;;;;;;4922934;29;20203;-81
2023/03/21 01:33:47;;;;;;;1.75;1.60;;;18.30;49.00;;;;;;4907084;29;20233;-81
2023/03/21 01:36:18;;;;;;;1.80;1.70;;;18.30;49.00;;;;;;4922624;29;20246;-81
2023/03/21 01:38:45;;;;;;;1.90;1.70;;;18.30;49.00;;;;;;4922497;29;20633;-82
2023/03/21 01:41:18;;;;;;;1.88;1.55;;;18.30;49.20;;;;;;4907311;29;20671;-81
2023/03/21 01:43:46;;;;;;;2.50;1.70;;;18.30;49.10;;;;;;4922454;29;20227;-81
2023/03/21 01:46:38;;;;;;;1.88;1.70;;;18.30;49.20;;;;;;4922355;29;20219;-81
2023/03/21 01:49:34;;;;;;;2.05;1.85;;;18.30;49.20;;;;;;4922798;29;20206;-81
2023/03/21 01:52:24;;;;;;;1.83;1.73;;;18.30;49.20;;;;;;4922177;29;20195;-80
2023/03/21 01:54:53;;;;;;;2.03;1.85;;;18.30;49.10;;;;;;4922139;29;20251;-80
2023/03/21 01:57:22;;;;;;;1.70;1.60;;;18.30;49.10;;;;;;4922248;29;20207;-80
2023/03/21 01:59:54;;;;;;;2.10;1.90;;;18.30;49.20;;;;;;4922215;29;20684;-80
2023/03/21 02:02:25;;;;;;;1.88;1.75;;;18.30;49.20;;;;;;4938958;29;20202;-80
2023/03/21 02:05:29;;;;;;;1.75;1.65;;;18.30;49.20;;;;;;4898873;29;20227;-81
2023/03/21 02:07:57;;;;;;;1.50;1.40;;;18.30;49.20;;;;;;4918717;29;20200;-82
2023/03/21 02:10:23;;;;;;;2.83;1.80;;;18.30;49.20;;;;;;4922182;29;20204;-81
2023/03/21 02:12:55;;;;;;;2.35;1.65;;;18.20;49.20;;;;;;4923077;29;20210;-81
2023/03/21 02:15:25;;;;;;;1.67;1.58;;;18.20;49.20;;;;;;4922364;29;20199;-82
2023/03/21 02:18:31;;;;;;;1.88;1.77;;;18.20;49.20;;;;;;4931116;29;20737;-81
2023/03/21 02:21:19;;;;;;;1.70;1.60;;;18.20;49.20;;;;;;4922018;29;20196;-81
2023/03/21 02:24:20;;;;;;;1.70;1.60;;;18.20;49.20;;;;;;4921746;29;20717;-82
2023/03/21 02:27:08;;;;;;;1.80;1.70;;;18.20;49.20;;;;;;4922195;29;20645;-83
2023/03/21 02:30:04;;;;;;;1.92;1.48;;;18.20;49.20;;;;;;4922168;29;20542;-83
2023/03/21 02:32:40;;;;;;;2.13;1.92;;;18.10;49.20;;;;;;4921680;29;20207;-81
2023/03/21 02:35:18;;;;;;;1.83;1.65;;;18.20;49.20;;;;;;4921661;29;20306;-81
2023/03/21 02:37:47;;;;;;;2.10;1.90;;;18.20;49.30;;;;;;4921623;29;20214;-81
2023/03/21 02:40:16;;;;;;;1.90;1.80;;;18.20;49.20;;;;;;4921644;29;20621;-81
2023/03/21 02:42:49;;;;;;;2.55;1.67;;;18.20;49.30;;;;;;4921738;29;20211;-81
2023/03/21 02:45:17;;;;;;;1.70;1.60;;;18.20;49.30;;;;;;4921521;29;20697;-81
2023/03/21 02:47:56;;;;;;;1.80;1.70;;;18.20;49.30;;;;;;4922328;29;20203;-81
2023/03/21 02:50:24;;;;;;;2.13;1.65;;;18.20;49.20;;;;;;4922840;29;20299;-81
2023/03/21 02:52:55;;;;;;;2.30;1.67;;;18.10;49.20;;;;;;4928114;29;20192;-81
2023/03/21 02:55:24;;;;;;;1.98;1.77;;;18.10;49.20;;;;;;4921852;29;20322;-81
2023/03/21 02:58:00;;;;;;;2.08;1.70;;;18.10;49.20;;;;;;4921457;29;20258;-82
2023/03/21 03:00:30;;;;;;;1.95;1.63;;;18.10;49.30;;;;;;4921337;29;20204;-82
2023/03/21 03:02:58;;;;;;;2.13;1.60;;;18.10;49.20;;;;;;4921365;29;20250;-80
2023/03/21 03:05:28;;;;;;;2.53;1.88;;;18.10;49.30;;;;;;4937241;29;20791;-80
2023/03/21 03:08:02;;;;;;;2.45;1.65;;;18.10;49.30;;;;;;4920867;29;20199;-80
2023/03/21 03:10:36;;;;;;;1.80;1.70;;;18.10;49.30;;;;;;4921778;29;20211;-82
2023/03/21 03:13:12;;;;;;;2.03;1.80;;;18.10;49.30;;;;;;4937724;29;20184;-80
2023/03/21 03:15:44;;;;;;;1.92;1.80;;;18.10;49.20;;;;;;4921278;29;20223;-80
2023/03/21 03:18:14;;;;;;;1.75;1.65;;;18.10;49.30;;;;;;4921333;29;20234;-80
2023/03/21 03:20:47;;;;;;;2.53;2.00;;;18.10;50.00;;;;;;4920724;29;20279;-82
2023/03/21 03:23:20;;;;;;;2.08;1.80;;;18.00;49.20;;;;;;4920440;29;20764;-82
2023/03/21 03:25:50;;;;;;;2.22;2.05;;;18.10;49.30;;;;;;4920341;29;20243;-82
2023/03/21 03:28:20;;;;;;;1.92;1.70;;;18.00;49.30;;;;;;4920431;29;20210;-82
2023/03/21 03:30:47;;;;;;;1.73;1.63;;;18.00;49.30;;;;;;4920947;29;20207;-82
2023/03/21 03:33:16;;;;;;;1.90;1.80;;;18.00;49.20;;;;;;4920683;29;20234;-81
2023/03/21 03:35:44;;;;;;;1.70;1.60;;;18.00;49.30;;;;;;4920487;29;20250;-81
2023/03/21 03:38:11;;;;;;;1.92;1.70;;;18.00;49.30;;;;;;4920324;29;20223;-81
2023/03/21 03:40:41;;;;;;;1.70;1.60;;;18.00;49.30;;;;;;4920330;29;20251;-81
2023/03/21 03:43:17;;;;;;;3.42;1.70;;;18.00;49.30;;;;;;4920449;29;20638;-81
2023/03/21 03:45:48;;;;;;;1.73;1.63;;;18.00;49.30;;;;;;4924971;29;20211;-81
2023/03/21 03:48:21;;;;;;;2.45;1.73;;;18.00;49.30;;;;;;4921450;29;20191;-81
2023/03/21 03:50:49;;;;;;;1.70;1.60;;;18.00;49.30;;;;;;4920528;29;20287;-81
2023/03/21 03:53:22;;;;;;;1.90;1.70;;;18.00;49.30;;;;;;4905475;29;20216;-81
2023/03/21 03:55:53;;;;;;;2.25;1.88;;;17.90;49.30;;;;;;4920456;29;20666;-81
2023/03/21 03:58:21;;;;;;;1.70;1.60;;;18.00;49.30;;;;;;4920151;29;20248;-81
2023/03/21 04:00:48;;;;;;;2.15;1.80;;;18.00;49.40;;;;;;4920368;29;20639;-81
2023/03/21 04:03:15;;;;;;;1.55;1.45;;;17.90;49.20;;;;;;4920593;29;20317;-81
2023/03/21 04:05:45;;;;;;;1.60;1.50;;;17.90;49.30;;;;;;4921033;29;20254;-81
2023/03/21 04:08:14;;;;;;;2.00;1.40;;;17.90;49.20;;;;;;4922045;29;20199;-81
2023/03/21 04:10:44;;;;;;;2.03;1.85;;;17.90;49.20;;;;;;4921588;29;20211;-81
2023/03/21 04:13:12;;;;;;;1.77;1.67;;;17.90;49.30;;;;;;4924624;29;20227;-81
2023/03/21 04:15:45;;;;;;;1.75;1.65;;;17.90;49.20;;;;;;4937001;29;20219;-81
2023/03/21 04:18:15;;;;;;;1.70;1.60;;;17.90;49.30;;;;;;4935493;29;20227;-81
2023/03/21 04:20:44;;;;;;;1.90;1.80;;;17.90;49.30;;;;;;4934818;29;20291;-82
2023/03/21 04:23:11;;;;;;;2.72;1.60;;;17.90;49.30;;;;;;4930195;29;20223;-82
2023/03/21 04:25:43;;;;;;;1.70;1.60;;;17.90;49.20;;;;;;4925078;29;20215;-81
2023/03/21 04:28:12;;;;;;;1.90;1.73;;;17.90;49.20;;;;;;4909553;29;20223;-81
2023/03/21 04:31:00;;;;;;;2.00;1.70;;;17.90;49.80;;;;;;4940713;29;20226;-81
2023/03/21 04:33:27;;;;;;;1.90;1.80;;;18.00;49.20;;;;;;4924048;29;20212;-81
2023/03/21 04:35:57;;;;;;;2.42;1.50;;;17.90;49.40;;;;;;4923361;29;20203;-81
2023/03/21 04:38:29;;;;;;;1.65;1.55;;;18.00;49.50;;;;;;4908450;29;20267;-81
2023/03/21 04:41:00;;;;;;;2.15;1.90;;;18.00;49.40;;;;;;4922860;29;20199;-81
2023/03/21 04:43:31;;;;;;;2.08;1.77;;;18.00;49.30;;;;;;4920772;29;20270;-81
2023/03/21 04:45:58;;;;;;;2.38;1.60;;;18.10;49.40;;;;;;4919708;29;20215;-81
2023/03/21 04:48:26;;;;;;;1.80;1.70;;;18.10;49.20;;;;;;4919676;29;20705;-81
2023/03/21 04:50:54;;;;;;;1.70;1.60;;;18.10;49.10;;;;;;4920078;29;20195;-81
2023/03/21 04:53:21;;;;;;;1.80;1.70;;;18.10;49.00;;;;;;4919414;29;20223;-81
2023/03/21 04:55:48;;;;;;;2.50;1.95;;;18.10;48.80;;;;;;4919571;29;20271;-81
2023/03/21 04:58:16;;;;;;;2.13;1.80;;;18.20;48.80;;;;;;4919377;29;20199;-81
2023/03/21 05:00:47;;;;;;;1.88;1.77;;;18.10;48.70;;;;;;4920451;29;20203;-82
2023/03/21 05:03:18;;;;;;;2.65;1.73;;;18.10;48.70;;;;;;4920165;29;20227;-82
2023/03/21 05:05:46;;;;;;;1.85;1.75;;;18.10;48.70;;;;;;4920405;29;20208;-82
2023/03/21 05:08:13;;;;;;;1.70;1.60;;;18.10;48.70;;;;;;4919477;29;20726;-82
2023/03/21 05:10:41;;;;;;;2.22;1.80;;;18.10;48.70;;;;;;4919428;29;20567;-81
2023/03/21 05:13:09;;;;;;;2.67;1.70;;;18.10;48.70;;;;;;4919605;29;20254;-82
2023/03/21 05:15:36;;;;;;;1.98;1.80;;;18.10;48.70;;;;;;4919676;29;20654;-82
2023/03/21 05:18:10;;;;;;;3.40;1.92;;;18.10;48.70;;;;;;4903918;29;20204;-81
2023/03/21 05:20:42;;;;;;;1.95;1.85;;;18.10;48.70;;;;;;4905547;29;20210;-82
2023/03/21 05:23:10;;;;;;;2.13;1.90;;;18.00;48.60;;;;;;4920819;29;20994;-82
2023/03/21 05:25:38;;;;;;;1.90;1.80;;;18.10;48.80;;;;;;4921731;29;20211;-82
2023/03/21 05:28:17;;;;;;;2.28;1.80;;;18.00;48.60;;;;;;4921374;29;20196;-82
2023/03/21 05:30:45;;;;;;;2.33;1.70;;;18.00;48.60;;;;;;4923840;29;20726;-81
2023/03/21 05:33:14;;;;;;;2.03;1.83;;;18.00;48.60;;;;;;4923280;29;20219;-82
2023/03/21 05:35:43;;;;;;;1.95;1.80;;;18.00;48.60;;;;;;4925565;29;20202;-81
2023/03/21 05:38:12;;;;;;;2.55;2.20;;;18.00;48.60;;;;;;4925695;29;20200;-81
2023/03/21 05:40:49;;;;;;;2.53;2.00;;;18.10;48.70;;;;;;4923035;29;20203;-81
2023/03/21 05:43:17;;;;;;;2.10;1.80;;;18.10;48.70;;;;;;4922714;29;20216;-81
2023/03/21 05:45:47;;;;;;;2.15;1.95;;;18.00;48.60;;;;;;4907820;29;20278;-81
2023/03/21 05:48:17;;;;;;;2.17;1.98;;;18.10;48.70;;;;;;4908559;29;20206;-81
2023/03/21 05:51:11;;;;;;;1.90;1.80;;;18.10;48.70;;;;;;4922993;29;20207;-81
2023/03/21 05:53:39;;;;;;;1.90;1.80;;;18.00;48.60;;;;;;4923112;29;20216;-81
2023/03/21 05:56:07;;;;;;;2.20;1.88;;;18.00;48.60;;;;;;4923033;29;20188;-81
2023/03/21 05:58:44;;;;;;;2.13;1.92;;;18.00;48.60;;;;;;4924782;29;20345;-81
2023/03/21 06:01:11;;;;;;;1.90;1.67;;;18.10;48.70;;;;;;4924985;29;20313;-81
2023/03/21 06:03:44;;;;;;;2.05;1.88;;;18.00;48.60;;;;;;4910413;29;20254;-80
2023/03/21 06:06:21;;;;;;;1.80;1.70;;;18.00;48.50;;;;;;4924153;29;20565;-80
2023/03/21 06:08:54;;;;;;;1.60;1.50;;;18.10;48.70;;;;;;4924709;29;20231;-81
2023/03/21 06:11:24;;;;;;;2.63;1.70;;;18.10;48.50;;;;;;4924975;29;20218;-81
2023/03/21 06:13:56;;;;;;;2.00;1.80;;;18.10;48.50;;;;;;4925241;29;20241;-81
2023/03/21 06:16:23;;;;;;;2.70;1.95;;;18.20;48.40;;;;;;4925047;29;20615;-81
2023/03/21 06:18:52;;;;;;;2.10;2.00;;;18.20;48.40;;;;;;4925081;29;20286;-81
2023/03/21 06:21:32;;;;;;;2.28;1.90;;;18.10;48.40;;;;;;4925353;29;20203;-81
2023/03/21 06:23:59;;;;;;;2.10;1.90;;;18.20;48.60;;;;;;4924699;29;20258;-81
2023/03/21 06:26:27;;;;;;;2.35;1.98;;;18.20;48.70;;;;;;4924983;29;20215;-81
2023/03/21 06:28:54;;;;;;;2.30;2.10;;;18.30;48.80;;;;;;4924752;29;20267;-81
2023/03/21 06:31:23;;;;;;;2.72;1.90;;;18.30;48.80;;;;;;4925730;29;20204;-81
2023/03/21 06:33:54;;;;;;;1.98;1.88;;;18.30;48.90;;;;;;4923239;29;20254;-81
2023/03/21 06:36:21;;;;;;;2.20;2.00;;;18.30;48.90;;;;;;4922121;29;20195;-81
2023/03/21 06:38:49;;;;;;;1.98;1.88;;;18.30;48.70;;;;;;4921919;29;20278;-81
2023/03/21 06:41:16;;;;;;;2.13;1.83;;;18.30;48.80;;;;;;4927799;29;20271;-81
2023/03/21 06:43:51;;;;;;;2.65;2.08;;;18.40;48.80;;;;;;4915403;29;20290;-81
2023/03/21 06:46:19;;;;;;;2.78;2.50;;;18.40;48.60;;;;;;4916899;29;20224;-81
2023/03/21 06:48:48;;;;;;;2.70;2.47;;;18.50;48.50;;;;;;4932176;29;20203;-81
2023/03/21 06:51:16;;;;;;;3.33;2.50;;;18.50;48.50;;;;;;4925931;29;20211;-81
2023/03/21 06:54:01;;;;;;;4.05;2.05;;;18.50;48.30;;;;;;4924852;29;20223;-82
2023/03/21 06:56:38;;;;;;;2.20;2.00;;;18.60;48.30;;;;;;4925127;29;20184;-79
2023/03/21 06:59:05;;;;;;;1.77;1.67;;;18.60;48.30;;;;;;4924787;29;20209;-80
2023/03/21 07:01:51;;;;;;;1.88;1.77;;;18.70;48.30;;;;;;4942009;29;20755;-80
2023/03/21 07:04:18;;;;;;;2.15;1.88;;;18.70;48.20;;;;;;4924480;29;20789;-80
2023/03/21 07:06:47;;;;;;;2.40;2.20;;;18.80;48.10;;;;;;4909650;29;20221;-81
2023/03/21 07:09:16;;;;;;;1.95;1.85;;;18.80;47.80;;;;;;4924658;29;20279;-82
2023/03/21 07:11:46;;;;;;;3.10;2.20;;;18.90;47.70;;;;;;4909833;29;20282;-81
2023/03/21 07:14:35;;;;;;;2.85;2.30;;;19.00;47.70;;;;;;4942139;29;20310;-81
2023/03/21 07:17:03;;;;;;;2.50;2.30;;;19.10;47.90;;;;;;4925127;29;20195;-80
2023/03/21 07:19:30;;;;;;;2.40;2.20;;;19.20;47.40;;;;;;4925318;29;20578;-80
2023/03/21 07:22:00;;;;;;;4.80;2.17;;;19.30;47.00;;;;;;4924129;29;20206;-81
2023/03/21 07:24:28;;;;;;;2.47;2.28;;;19.50;47.00;;;;;;4923640;29;20710;-80
2023/03/21 07:26:55;;;;;;;2.10;2.00;;;19.70;46.60;;;;;;4905718;29;20227;-78
2023/03/21 07:29:23;;;;;;;2.20;2.00;;;20.00;46.20;;;;;;4921256;29;20207;-79
2023/03/21 07:31:51;;;;;;;2.25;2.05;;;20.20;45.90;;;;;;4921458;29;20251;-79
2023/03/21 07:34:18;;;;;;;2.80;2.38;;;20.40;45.50;;;;;;4922782;29;20227;-80
2023/03/21 07:36:45;;;;;;;2.72;2.28;;;20.50;45.10;;;;;;4907762;29;20254;-80
2023/03/21 07:39:14;;;;;;;3.65;2.47;;;20.60;44.70;;;;;;4923270;29;20199;-80
2023/03/21 07:41:41;;;;;;;2.20;2.08;;;20.70;44.60;;;;;;4921970;29;20199;-79
2023/03/21 07:44:24;;;;;;;2.20;2.00;;;20.60;44.50;;;;;;4921741;29;20219;-79
2023/03/21 07:47:02;;;;;;;3.20;2.28;;;20.60;44.50;;;;;;4921956;29;20219;-79
2023/03/21 07:49:29;;;;;;;3.25;2.33;;;20.60;44.40;;;;;;4921867;29;20208;-80
2023/03/21 07:51:58;;;;;;;2.53;2.33;;;20.60;44.50;;;;;;4905868;29;20207;-79
2023/03/21 07:54:27;;;;;;;2.58;2.38;;;20.80;44.60;;;;;;4921232;29;20227;-79
2023/03/21 07:56:56;;;;;;;3.80;2.30;;;20.90;44.40;;;;;;4923702;29;20211;-80
2023/03/21 07:59:23;;;;;;;2.78;2.28;;;21.00;44.10;;;;;;4928420;29;20206;-80
2023/03/21 08:01:50;;;;;;;2.38;2.00;;;21.10;43.90;;;;;;4931279;29;20235;-79
2023/03/21 08:04:17;;;;;;;2.22;2.03;;;21.10;43.90;;;;;;4929544;29;20215;-79
2023/03/21 08:06:45;;;;;;;2.30;2.10;;;21.30;43.90;;;;;;4929395;29;20242;-79
2023/03/21 08:09:12;;;;;;;2.25;2.05;;;21.40;43.60;;;;;;4929888;29;20582;-80
2023/03/21 08:11:41;;;;;;;2.33;2.00;;;21.60;43.40;;;;;;4926091;29;20250;-79
2023/03/21 08:14:08;;;;;;;2.17;2.00;;;21.70;43.20;;;;;;4927261;29;20250;-79
2023/03/21 08:16:35;;;;;;;2.38;1.95;;;21.80;43.50;;;;;;4920465;29;20250;-79
2023/03/21 08:19:03;;;;;;;2.38;1.65;;;21.90;42.80;;;;;;4920339;29;20196;-79
2023/03/21 08:21:30;;;;;;;1.83;1.73;;;22.00;42.80;;;;;;4920229;29;20204;-80
2023/03/21 08:23:57;;;;;;;1.95;1.85;;;22.10;42.60;;;;;;4920031;29;20253;-80
2023/03/21 08:26:25;;;;;;;1.98;1.88;;;22.20;42.60;;;;;;4919983;29;20207;-78
2023/03/21 08:28:54;;;;;;;1.73;1.63;;;22.10;42.30;;;;;;4920919;29;20324;-79
2023/03/21 08:31:22;;;;;;;2.00;1.88;;;22.20;42.30;;;;;;4920146;29;20238;-79
2023/03/21 08:33:53;;;;;;;1.90;1.80;;;22.30;42.20;;;;;;4904395;29;20686;-79
2023/03/21 08:36:20;;;;;;;2.00;1.80;;;22.30;42.10;;;;;;4919667;29;20207;-79
2023/03/21 08:38:47;;;;;;;1.80;1.70;;;22.40;42.00;;;;;;4920403;29;20210;-79
2023/03/21 08:41:14;;;;;;;1.80;1.70;;;22.50;41.90;;;;;;4920098;29;20238;-79
2023/03/21 08:43:41;;;;;;;2.28;1.73;;;22.60;41.80;;;;;;4888995;29;20223;-79
2023/03/21 08:46:09;;;;;;;2.83;1.50;;;22.70;41.80;;;;;;4919341;29;20214;-79
2023/03/21 08:48:37;;;;;;;1.60;1.50;;;22.70;41.60;;;;;;4919793;29;20227;-79
2023/03/21 08:51:05;;;;;;;1.40;1.30;;;22.80;41.40;;;;;;4919720;29;20750;-79
2023/03/21 08:53:32;;;;;;;1.80;1.70;;;22.90;41.30;;;;;;4919417;29;20313;-80
2023/03/21 08:55:59;;;;;;;1.88;1.70;;;23.00;40.90;;;;;;4919548;29;20207;-80
2023/03/21 08:58:26;;;;;;;1.60;1.50;;;23.00;40.80;;;;;;4904541;29;20640;-80
2023/03/21 09:00:53;;;;;;;1.70;1.60;;;23.10;40.70;;;;;;4937007;29;20207;-80
2023/03/21 09:03:22;;;;;;;1.60;1.50;;;23.20;40.70;;;;;;4920476;29;20270;-80
2023/03/21 09:05:49;;;;;;;1.80;1.70;;;23.20;40.60;;;;;;4923230;29;20211;-80
2023/03/21 09:08:17;;;;;;;1.77;1.67;;;23.20;40.80;;;;;;4923320;29;20223;-80
2023/03/21 09:10:44;;;;;;;1.80;1.70;;;23.20;40.50;;;;;;4923180;29;20205;-80
2023/03/21 09:13:11;;;;;;;1.60;1.50;;;23.20;40.70;;;;;;4923399;29;20223;-80
2023/03/21 09:15:39;;;;;;;1.90;1.80;;;23.30;40.60;;;;;;4923455;29;20250;-80
2023/03/21 09:18:13;;;;;;;1.83;1.70;;;23.30;40.40;;;;;;4924321;29;20254;-80
2023/03/21 09:20:42;;;;;;;1.55;1.45;;;23.40;40.30;;;;;;4908727;29;20635;-80
2023/03/21 09:23:10;;;;;;;1.40;1.30;;;23.40;40.10;;;;;;4923189;29;20282;-80
2023/03/21 09:25:37;;;;;;;1.70;1.60;;;23.50;40.10;;;;;;4923662;29;20582;-80
2023/03/21 09:28:05;;;;;;;1.33;1.30;;;23.50;40.10;;;;;;4924238;29;20275;-80
2023/03/21 09:30:32;;;;;;;1.70;1.60;;;23.50;40.20;;;;;;4923530;29;20689;-80
2023/03/21 09:33:00;;;;;;;1.67;1.58;;;23.50;40.20;;;;;;4923263;29;20207;-80
2023/03/21 09:35:27;;;;;;;1.77;1.67;;;23.50;40.10;;;;;;4923751;29;20680;-80
2023/03/21 09:37:58;;;;;;;2.10;1.55;;;23.50;40.10;;;;;;4923719;29;20200;-80
2023/03/21 09:40:51;;;;;;;1.88;1.75;;;23.50;40.10;;;;;;4923203;29;20199;-80
2023/03/21 09:43:25;;;;;;;1.50;1.40;;;23.50;40.00;;;;;;4919282;29;20219;-80
2023/03/21 09:45:54;;;;;;;1.80;1.70;;;23.40;40.10;;;;;;4924679;29;20184;-80
2023/03/21 09:48:29;;;;;;;1.60;1.50;;;23.30;40.30;;;;;;4925250;29;20223;-80
2023/03/21 09:50:56;;;;;;;1.80;1.70;;;23.20;40.30;;;;;;4942774;29;20239;-80
2023/03/21 09:53:26;;;;;;;1.63;1.52;;;23.20;40.50;;;;;;4924582;29;20733;-80
2023/03/21 09:55:53;;;;;;;1.52;1.42;;;23.20;40.60;;;;;;4908014;29;20208;-80
2023/03/21 09:58:25;;;;;;;1.70;1.50;;;23.20;40.60;;;;;;4923150;29;20192;-80
2023/03/21 10:00:55;;;;;;;1.70;1.60;;;23.20;40.40;;;;;;4922839;29;20203;-80
2023/03/21 10:03:24;;;;;;;1.80;1.50;;;23.30;40.30;;;;;;4938453;29;20310;-80
2023/03/21 10:05:56;;;;;;;2.00;1.48;;;23.30;40.20;;;;;;4922601;29;20670;-80
2023/03/21 10:08:26;;;;;;;1.63;1.52;;;23.40;40.20;;;;;;4922440;29;20225;-80
2023/03/21 10:10:57;;;;;;;1.67;1.58;;;23.40;40.10;;;;;;4923734;29;20184;-80
2023/03/21 10:13:25;;;;;;;1.60;1.50;;;23.40;40.10;;;;;;4925248;29;20223;-80
2023/03/21 10:15:54;;;;;;;1.85;1.75;;;23.40;40.10;;;;;;4922648;29;20199;-80
2023/03/21 10:18:23;;;;;;;1.50;1.40;;;23.40;40.10;;;;;;4923188;29;20717;-80
2023/03/21 10:20:50;;;;;;;1.58;1.48;;;23.40;40.20;;;;;;4928660;29;20262;-80
2023/03/21 10:23:19;;;;;;;1.52;1.42;;;23.30;40.10;;;;;;4939660;29;20235;-80
2023/03/21 10:25:47;;;;;;;1.63;1.40;;;23.30;40.30;;;;;;4940304;29;20203;-80
2023/03/21 10:28:18;;;;;;;1.42;1.40;;;23.30;40.30;;;;;;4938315;29;20247;-80
2023/03/21 10:30:46;;;;;;;1.70;1.60;;;23.20;40.30;;;;;;4911473;29;20276;-80
2023/03/21 10:33:14;;;;;;;1.70;1.50;;;23.20;40.30;;;;;;4926076;29;20286;-80
2023/03/21 10:35:43;;;;;;;1.40;1.30;;;23.20;40.40;;;;;;4926166;29;20235;-80
2023/03/21 10:38:13;;;;;;;1.58;1.48;;;23.20;40.40;;;;;;4910331;29;20204;-80
2023/03/21 10:40:40;;;;;;;1.55;1.45;;;23.20;40.40;;;;;;4925771;29;20211;-80
2023/03/21 10:43:20;;;;;;;1.58;1.48;;;23.20;40.30;;;;;;4925116;29;20206;-80
2023/03/21 10:45:47;;;;;;;1.63;1.52;;;23.20;40.40;;;;;;4925316;29;20682;-80
2023/03/21 10:48:15;;;;;;;1.50;1.40;;;23.20;40.30;;;;;;4924828;29;20214;-80
2023/03/21 10:50:42;;;;;;;1.50;1.40;;;23.20;40.40;;;;;;4924174;29;20210;-80
2023/03/21 10:53:17;;;;;;;1.50;1.40;;;23.20;40.40;;;;;;4921609;29;20688;-80
2023/03/21 10:55:46;;;;;;;1.80;1.40;;;23.20;40.40;;;;;;4917159;29;20210;-80
2023/03/21 10:58:17;;;;;;;1.30;1.30;;;23.20;40.50;;;;;;4921833;29;20259;-80
2023/03/21 11:00:46;;;;;;;1.60;1.50;;;23.10;40.40;;;;;;4905937;29;20199;-80
2023/03/21 11:03:20;;;;;;;1.48;1.38;;;23.10;40.50;;;;;;4921117;29;20223;-80
2023/03/21 11:05:47;;;;;;;1.80;1.55;;;23.10;40.50;;;;;;4921498;29;20294;-80
2023/03/21 11:08:16;;;;;;;1.50;1.40;;;23.10;40.60;;;;;;4921549;29;20227;-79
2023/03/21 11:10:54;;;;;;;1.60;1.50;;;23.10;40.70;;;;;;4922167;29;20605;-79
2023/03/21 11:13:25;;;;;;;1.52;1.40;;;23.00;40.70;;;;;;4921127;29;20271;-79
2023/03/21 11:15:57;;;;;;;1.55;1.45;;;23.00;40.70;;;;;;4921191;29;20210;-79
2023/03/21 11:18:27;;;;;;;1.45;1.35;;;23.00;40.80;;;;;;4921532;29;20279;-79
2023/03/21 11:20:55;;;;;;;1.50;1.40;;;23.00;40.90;;;;;;4921273;29;20206;-79
2023/03/21 11:23:25;;;;;;;1.48;1.38;;;23.00;40.90;;;;;;4921120;29;20714;-79
2023/03/21 11:25:52;;;;;;;1.40;1.30;;;23.00;40.90;;;;;;4920525;29;20659;-79
2023/03/21 11:28:21;;;;;;;1.52;1.42;;;23.00;40.90;;;;;;4905391;29;20227;-79
2023/03/21 11:30:54;;;;;;;1.63;1.50;;;23.00;40.90;;;;;;4920870;29;20636;-79
2023/03/21 11:33:21;;;;;;;1.50;1.40;;;23.00;40.90;;;;;;4920923;29;20219;-79
2023/03/21 11:35:59;;;;;;;1.38;1.25;;;23.00;40.80;;;;;;4920942;29;20274;-79
2023/03/21 11:38:48;;;;;;;1.75;1.65;;;23.00;40.90;;;;;;4924455;29;20185;-79
2023/03/21 11:41:22;;;;;;;1.23;1.23;;;23.00;40.80;;;;;;4921083;29;20207;-79
2023/03/21 11:43:51;;;;;;;1.10;1.10;;;23.00;40.90;;;;;;4906409;29;20237;-79
2023/03/21 11:46:22;;;;;;;1.65;1.30;;;23.00;40.80;;;;;;4920885;29;20199;-80
2023/03/21 11:48:49;;;;;;;1.40;1.30;;;23.00;40.80;;;;;;4920964;29;20218;-80
2023/03/21 11:51:22;;;;;;;1.52;1.42;;;23.00;40.80;;;;;;4922292;29;20319;-80
2023/03/21 11:53:51;;;;;;;1.23;1.20;;;23.00;40.90;;;;;;4921989;29;20233;-80
2023/03/21 11:56:26;;;;;;;1.20;1.20;;;23.00;40.90;;;;;;4922160;29;20207;-80
2023/03/21 11:59:20;;;;;;;1.38;1.27;;;23.00;40.90;;;;;;4921642;29;20197;-80
2023/03/21 12:02:00;;;;;;;1.45;1.35;;;22.90;40.90;;;;;;4921081;29;20218;-80
2023/03/21 12:04:40;;;;;;;1.73;1.25;;;22.90;40.90;;;;;;4921902;29;20404;-80
2023/03/21 12:07:18;;;;;;;1.63;1.48;;;22.90;41.00;;;;;;4920501;29;20651;-80
2023/03/21 12:09:47;;;;;;;1.40;1.30;;;22.90;41.00;;;;;;4920205;29;20210;-80
2023/03/21 12:12:25;;;;;;;1.40;1.30;;;22.80;41.00;;;;;;4920656;29;20263;-80
2023/03/21 12:14:58;;;;;;;1.45;1.30;;;22.90;41.10;;;;;;4921177;29;20222;-80
2023/03/21 12:17:38;;;;;;;1.40;1.30;;;22.80;41.10;;;;;;4921145;29;20592;-80
2023/03/21 12:20:20;;;;;;;1.45;1.35;;;22.80;41.20;;;;;;4920671;29;20632;-80
2023/03/21 12:22:53;;;;;;;1.50;1.40;;;22.80;41.20;;;;;;4920715;29;20574;-80
2023/03/21 12:25:26;;;;;;;1.40;1.30;;;22.70;41.10;;;;;;4920805;29;20203;-80
2023/03/21 12:27:59;;;;;;;1.13;1.13;;;22.70;41.20;;;;;;4920834;29;20208;-80
2023/03/21 12:30:32;;;;;;;1.25;1.15;;;22.70;41.20;;;;;;4920947;29;20191;-80
2023/03/21 12:33:22;;;;;;;1.33;1.23;;;22.70;41.30;;;;;;4921499;29;20196;-80
2023/03/21 12:35:59;;;;;;;1.20;1.20;;;22.70;41.30;;;;;;4921111;29;20294;-80
2023/03/21 12:38:30;;;;;;;1.60;1.50;;;22.60;41.30;;;;;;4923681;29;20203;-80
2023/03/21 12:41:19;;;;;;;1.20;1.20;;;22.60;41.40;;;;;;4924815;29;20272;-80
2023/03/21 12:43:47;;;;;;;1.30;1.20;;;22.60;41.40;;;;;;4908851;29;20219;-80
2023/03/21 12:46:18;;;;;;;1.40;1.30;;;22.60;41.40;;;;;;4926775;29;20544;-80
2023/03/21 12:48:48;;;;;;;1.08;1.08;;;22.60;41.50;;;;;;4925521;29;20215;-80
2023/03/21 12:51:16;;;;;;;1.50;1.40;;;22.60;41.50;;;;;;4894223;29;20199;-80
2023/03/21 12:53:56;;;;;;;1.00;1.00;;;22.50;41.50;;;;;;4942804;29;20222;-80
2023/03/21 12:56:25;;;;;;;1.23;1.23;;;22.50;41.50;;;;;;4941944;29;20176;-80
2023/03/21 12:58:54;;;;;;;1.17;1.10;;;22.50;41.60;;;;;;4924613;29;20195;-80
2023/03/21 13:01:23;;;;;;;1.40;1.30;;;22.50;41.60;;;;;;4924008;29;20200;-80
2023/03/21 13:03:54;;;;;;;1.50;1.40;;;22.50;41.70;;;;;;4940844;29;20208;-80
2023/03/21 13:06:22;;;;;;;1.30;1.20;;;22.50;41.70;;;;;;4924462;29;20191;-80